createdAt,value
2017-03-16T00:07:22.899Z,1021.64
2017-03-16T00:17:22.869Z,1021.55
2017-03-16T00:27:22.947Z,1021.44
2017-03-16T00:37:22.892Z,1021.35
2017-03-16T00:47:22.857Z,1021.32
2017-03-16T00:57:22.922Z,1021.15
2017-03-16T01:07:22.953Z,1020.94
2017-03-16T01:17:22.943Z,1020.89
2017-03-16T01:27:23.148Z,1020.87
2017-03-16T01:37:22.991Z,1020.77
2017-03-16T01:47:22.946Z,1020.66
2017-03-16T01:57:23.059Z,1020.51
2017-03-16T02:07:22.950Z,1020.43
2017-03-16T02:17:23.016Z,1020.33
2017-03-16T02:27:22.964Z,1020.21
2017-03-16T02:37:22.935Z,1020.04
2017-03-16T02:47:22.998Z,1020.01
2017-03-16T02:57:22.957Z,1019.93
2017-03-16T03:07:23.118Z,1019.93
2017-03-16T03:17:22.984Z,1019.9
2017-03-16T03:27:23.041Z,1019.79
2017-03-16T03:37:23.005Z,1019.84
2017-03-16T03:47:23.085Z,1019.79
2017-03-16T03:57:23.025Z,1019.83
2017-03-16T04:07:23.085Z,1019.79
2017-03-16T04:17:23.081Z,1019.87
2017-03-16T04:27:23.007Z,1019.8
2017-03-16T04:37:23.072Z,1019.6
2017-03-16T04:47:23.036Z,1019.55
2017-03-16T04:57:23.097Z,1019.53
2017-03-16T05:07:23.066Z,1019.62
2017-03-16T05:17:23.126Z,1019.57
2017-03-16T05:27:23.085Z,1019.51
2017-03-16T05:37:23.142Z,1019.36
2017-03-16T05:47:23.111Z,1019.42
2017-03-16T05:57:23.186Z,1019.43
2017-03-16T06:07:23.139Z,1019.35
2017-03-16T06:17:23.098Z,1019.43
2017-03-16T06:27:23.135Z,1019.34
2017-03-16T06:37:23.195Z,1019.45
2017-03-16T06:47:23.154Z,1019.44
2017-03-16T06:57:23.109Z,1019.48
2017-03-16T07:07:23.182Z,1019.43
2017-03-16T07:17:23.144Z,1019.45
2017-03-16T07:27:23.207Z,1019.38
2017-03-16T07:37:23.163Z,1019.45
2017-03-16T07:47:23.211Z,1019.52
2017-03-16T07:57:23.171Z,1019.46
2017-03-16T08:07:23.246Z,1019.56
2017-03-16T08:17:23.197Z,1019.51
2017-03-16T08:27:23.259Z,1019.44
2017-03-16T08:37:23.227Z,1019.38
2017-03-16T08:47:23.288Z,1019.39
2017-03-16T08:57:23.244Z,1019.26
2017-03-16T09:07:23.381Z,1019.19
2017-03-16T09:17:23.268Z,1019.07
2017-03-16T09:27:23.336Z,1019.04
2017-03-16T09:37:23.282Z,1018.95
2017-03-16T09:47:23.356Z,1018.76
2017-03-16T09:57:23.298Z,1018.7
2017-03-16T10:07:23.422Z,1018.61
2017-03-16T10:17:23.346Z,1018.49
2017-03-16T10:27:23.436Z,1018.27
2017-03-16T10:37:23.325Z,1018.14
2017-03-16T10:47:23.493Z,1018.08
2017-03-16T10:57:23.347Z,1017.91
2017-03-16T11:07:23.421Z,1017.69
2017-03-16T11:17:23.379Z,1017.58
2017-03-16T11:27:23.438Z,1017.34
2017-03-16T11:37:23.381Z,1017.3
2017-03-16T11:47:32.763Z,1017.16
2017-03-16T11:57:23.411Z,1017.01
2017-03-16T12:07:23.956Z,1016.84
2017-03-16T12:17:23.462Z,1016.44
2017-03-16T12:27:23.410Z,1016.32
2017-03-16T12:37:23.593Z,1016.01
2017-03-16T12:47:23.431Z,1015.88
2017-03-16T12:57:23.491Z,1015.65
2017-03-16T13:07:24.043Z,1015.36
2017-03-16T13:17:23.523Z,1015.11
2017-03-16T13:27:23.508Z,1014.86
2017-03-16T13:37:23.547Z,1014.76
2017-03-16T13:47:23.500Z,1014.4
2017-03-16T13:57:23.555Z,1014.28
2017-03-16T14:07:23.550Z,1014.21
2017-03-16T14:17:23.591Z,1014.07
2017-03-16T14:27:23.559Z,1014.01
2017-03-16T14:37:23.619Z,1013.83
2017-03-16T14:47:23.585Z,1013.73
2017-03-16T14:57:23.643Z,1013.4
2017-03-16T15:07:23.597Z,1013.29
2017-03-16T15:17:23.689Z,1013.07
2017-03-16T15:27:23.622Z,1012.85
2017-03-16T15:37:23.688Z,1012.79
2017-03-16T15:47:23.660Z,1012.67
2017-03-16T15:57:23.710Z,1012.46
2017-03-16T16:07:23.665Z,1012.37
2017-03-16T16:17:23.738Z,1012.11
2017-03-16T16:27:23.652Z,1011.99
2017-03-16T16:37:23.657Z,1011.85
2017-03-16T16:47:23.683Z,1011.65
2017-03-16T16:57:23.672Z,1011.64
2017-03-16T17:07:23.743Z,1011.52
2017-03-16T17:17:23.777Z,1011.53
2017-03-16T17:27:23.792Z,1011.49
2017-03-16T17:37:23.739Z,1011.43
2017-03-16T17:47:23.812Z,1011.23
2017-03-16T17:57:23.761Z,1011.09
2017-03-16T18:07:23.821Z,1011
2017-03-16T18:17:23.740Z,1010.86
2017-03-16T18:27:23.760Z,1010.83
2017-03-16T18:37:23.793Z,1010.87
2017-03-16T18:47:23.799Z,1010.66
2017-03-16T18:57:23.794Z,1010.53
2017-03-16T19:07:23.787Z,1010.42
2017-03-16T19:17:23.805Z,1010.43
2017-03-16T19:27:23.834Z,1010.31
2017-03-16T19:37:23.810Z,1010.22
2017-03-16T19:47:23.853Z,1010.1
2017-03-16T19:57:23.840Z,1009.98
2017-03-16T20:07:23.847Z,1009.85
2017-03-16T20:17:23.923Z,1009.66
2017-03-16T20:27:23.883Z,1009.59
2017-03-16T20:37:23.936Z,1009.43
2017-03-16T20:47:23.882Z,1009.33
2017-03-16T20:57:23.953Z,1009.26
2017-03-16T21:07:23.918Z,1009.17
2017-03-16T21:17:23.979Z,1009.02
2017-03-16T21:27:23.947Z,1008.86
2017-03-16T21:37:24.029Z,1008.71
2017-03-16T21:47:23.965Z,1008.69
2017-03-16T21:57:24.023Z,1008.56
2017-03-16T22:07:23.990Z,1008.61
2017-03-16T22:17:24.082Z,1008.71
2017-03-16T22:27:24.024Z,1008.6
2017-03-16T22:37:23.998Z,1008.46
2017-03-16T22:47:24.040Z,1008.37
2017-03-16T22:57:24.002Z,1008.21
2017-03-16T23:07:24.075Z,1008.07
2017-03-16T23:17:24.020Z,1007.93
2017-03-16T23:27:24.102Z,1007.66
2017-03-16T23:37:24.068Z,1007.56
2017-03-16T23:47:24.110Z,1007.46
2017-03-16T23:57:24.074Z,1007.35
